sensor_id;sensor_type;location;lat;lon;timestamp;pressure;altitude;pressure_sealevel;temperature;humidity
74403;BME280;62837;51.082;13.744;2024-03-29T00:01:40;98877.48;;;10.49;56.38
74403;BME280;62837;51.082;13.744;2024-03-29T00:04:10;98878.80;;;10.41;56.06
74403;BME280;62837;51.082;13.744;2024-03-29T00:06:40;98880.69;;;10.34;56.77
74403;BME280;62837;51.082;13.744;2024-03-29T00:09:10;98882.64;;;10.37;58.85
74403;BME280;62837;51.082;13.744;2024-03-29T00:11:41;98881.91;;;10.45;59.33
74403;BME280;62837;51.082;13.744;2024-03-29T00:14:12;98885.77;;;10.53;57.82
74403;BME280;62837;51.082;13.744;2024-03-29T00:16:42;98882.73;;;10.55;58.40
74403;BME280;62837;51.082;13.744;2024-03-29T00:19:12;98885.77;;;10.61;58.36
74403;BME280;62837;51.082;13.744;2024-03-29T00:21:42;98886.08;;;10.62;56.81
74403;BME280;62837;51.082;13.744;2024-03-29T00:24:12;98889.77;;;10.58;55.85
74403;BME280;62837;51.082;13.744;2024-03-29T00:26:43;98889.89;;;10.53;55.96
74403;BME280;62837;51.082;13.744;2024-03-29T00:29:13;98893.59;;;10.48;56.11
74403;BME280;62837;51.082;13.744;2024-03-29T00:31:43;98896.23;;;10.48;57.55
74403;BME280;62837;51.082;13.744;2024-03-29T00:34:14;98896.71;;;10.53;57.13
74403;BME280;62837;51.082;13.744;2024-03-29T00:36:44;98901.54;;;10.57;57.21
74403;BME280;62837;51.082;13.744;2024-03-29T00:39:14;98911.20;;;10.62;56.99
74403;BME280;62837;51.082;13.744;2024-03-29T00:41:45;98913.25;;;10.66;56.96
74403;BME280;62837;51.082;13.744;2024-03-29T00:44:15;98912.66;;;10.69;57.43
74403;BME280;62837;51.082;13.744;2024-03-29T00:46:45;98915.38;;;10.75;58.36
74403;BME280;62837;51.082;13.744;2024-03-29T00:49:15;98920.89;;;10.82;58.38
74403;BME280;62837;51.082;13.744;2024-03-29T00:51:45;98923.86;;;10.90;58.48
74403;BME280;62837;51.082;13.744;2024-03-29T00:54:16;98926.90;;;10.97;58.52
74403;BME280;62837;51.082;13.744;2024-03-29T00:56:47;98930.85;;;11.02;57.65
74403;BME280;62837;51.082;13.744;2024-03-29T00:59:18;98930.84;;;11.05;57.97
74403;BME280;62837;51.082;13.744;2024-03-29T01:01:49;98929.65;;;11.10;58.68
74403;BME280;62837;51.082;13.744;2024-03-29T01:04:19;98928.30;;;11.16;58.03
74403;BME280;62837;51.082;13.744;2024-03-29T01:06:50;98929.94;;;11.21;57.51
74403;BME280;62837;51.082;13.744;2024-03-29T01:09:20;98933.20;;;11.24;57.78
74403;BME280;62837;51.082;13.744;2024-03-29T01:11:51;98932.66;;;11.26;57.30
74403;BME280;62837;51.082;13.744;2024-03-29T01:14:22;98937.48;;;11.28;56.70
74403;BME280;62837;51.082;13.744;2024-03-29T01:16:52;98945.62;;;11.18;54.99
74403;BME280;62837;51.082;13.744;2024-03-29T01:19:23;98953.33;;;11.09;55.80
74403;BME280;62837;51.082;13.744;2024-03-29T01:21:53;98953.96;;;11.07;56.86
74403;BME280;62837;51.082;13.744;2024-03-29T01:24:23;98958.30;;;11.09;57.22
74403;BME280;62837;51.082;13.744;2024-03-29T01:26:54;98963.25;;;11.12;57.04
74403;BME280;62837;51.082;13.744;2024-03-29T01:29:24;98964.45;;;11.13;55.85
74403;BME280;62837;51.082;13.744;2024-03-29T01:31:54;98965.19;;;11.07;55.80
74403;BME280;62837;51.082;13.744;2024-03-29T01:34:24;98968.80;;;11.05;56.16
74403;BME280;62837;51.082;13.744;2024-03-29T01:36:55;98970.71;;;11.06;56.36
74403;BME280;62837;51.082;13.744;2024-03-29T01:39:25;98968.93;;;11.07;56.13
74403;BME280;62837;51.082;13.744;2024-03-29T01:42:00;98969.74;;;11.08;55.51
74403;BME280;62837;51.082;13.744;2024-03-29T01:44:30;98964.58;;;11.08;55.61
74403;BME280;62837;51.082;13.744;2024-03-29T01:47:01;98959.58;;;11.06;55.28
74403;BME280;62837;51.082;13.744;2024-03-29T01:49:32;98960.60;;;11.05;54.90
74403;BME280;62837;51.082;13.744;2024-03-29T01:52:03;98959.42;;;11.02;55.35
74403;BME280;62837;51.082;13.744;2024-03-29T01:54:34;98960.45;;;11.04;55.68
74403;BME280;62837;51.082;13.744;2024-03-29T01:57:06;98958.80;;;11.05;55.43
74403;BME280;62837;51.082;13.744;2024-03-29T01:59:36;98953.01;;;11.05;55.94
74403;BME280;62837;51.082;13.744;2024-03-29T02:02:08;98948.03;;;11.06;54.75
74403;BME280;62837;51.082;13.744;2024-03-29T02:04:38;98946.13;;;11.02;54.00
74403;BME280;62837;51.082;13.744;2024-03-29T02:07:09;98945.32;;;10.97;54.73
74403;BME280;62837;51.082;13.744;2024-03-29T02:09:39;98947.54;;;10.92;54.00
74403;BME280;62837;51.082;13.744;2024-03-29T02:12:10;98947.31;;;10.88;54.59
74403;BME280;62837;51.082;13.744;2024-03-29T02:14:40;98948.58;;;10.85;54.78
74403;BME280;62837;51.082;13.744;2024-03-29T02:17:11;98943.68;;;10.85;55.17
74403;BME280;62837;51.082;13.744;2024-03-29T02:19:41;98936.61;;;10.86;54.86
74403;BME280;62837;51.082;13.744;2024-03-29T02:22:15;98932.19;;;10.84;54.13
74403;BME280;62837;51.082;13.744;2024-03-29T02:24:44;98929.57;;;10.79;53.83
74403;BME280;62837;51.082;13.744;2024-03-29T02:27:14;98927.85;;;10.71;53.55
74403;BME280;62837;51.082;13.744;2024-03-29T02:29:46;98925.83;;;10.66;53.95
74403;BME280;62837;51.082;13.744;2024-03-29T02:32:16;98925.67;;;10.62;53.84
74403;BME280;62837;51.082;13.744;2024-03-29T02:34:47;98920.46;;;10.53;53.74
74403;BME280;62837;51.082;13.744;2024-03-29T02:37:17;98918.15;;;10.48;53.76
74403;BME280;62837;51.082;13.744;2024-03-29T02:39:47;98928.92;;;10.44;53.88
74403;BME280;62837;51.082;13.744;2024-03-29T02:42:17;98938.64;;;10.40;53.96
74403;BME280;62837;51.082;13.744;2024-03-29T02:44:48;98930.35;;;10.35;54.33
74403;BME280;62837;51.082;13.744;2024-03-29T02:47:19;98937.48;;;10.32;54.51
74403;BME280;62837;51.082;13.744;2024-03-29T02:49:49;98939.55;;;10.28;54.50
74403;BME280;62837;51.082;13.744;2024-03-29T02:52:19;98946.17;;;10.26;54.76
74403;BME280;62837;51.082;13.744;2024-03-29T02:54:50;98943.41;;;10.23;54.66
74403;BME280;62837;51.082;13.744;2024-03-29T02:57:20;98939.91;;;10.21;54.73
74403;BME280;62837;51.082;13.744;2024-03-29T02:59:50;98947.20;;;10.18;55.13
74403;BME280;62837;51.082;13.744;2024-03-29T03:02:20;98946.70;;;10.18;55.15
74403;BME280;62837;51.082;13.744;2024-03-29T03:04:50;98944.52;;;10.14;54.94
74403;BME280;62837;51.082;13.744;2024-03-29T03:07:21;98956.59;;;10.10;55.03
74403;BME280;62837;51.082;13.744;2024-03-29T03:10:09;98951.18;;;10.07;54.97
74403;BME280;62837;51.082;13.744;2024-03-29T03:12:57;98956.27;;;10.03;55.51
74403;BME280;62837;51.082;13.744;2024-03-29T03:15:31;98948.33;;;10.02;55.32
74403;BME280;62837;51.082;13.744;2024-03-29T03:18:02;98958.25;;;9.99;55.19
74403;BME280;62837;51.082;13.744;2024-03-29T03:20:32;98961.20;;;9.96;55.23
74403;BME280;62837;51.082;13.744;2024-03-29T03:23:03;98966.92;;;9.93;55.52
74403;BME280;62837;51.082;13.744;2024-03-29T03:25:34;98972.73;;;9.92;55.72
74403;BME280;62837;51.082;13.744;2024-03-29T03:28:05;98970.68;;;9.91;55.48
74403;BME280;62837;51.082;13.744;2024-03-29T03:30:39;98967.08;;;9.89;55.53
74403;BME280;62837;51.082;13.744;2024-03-29T03:33:09;98968.17;;;9.87;55.58
74403;BME280;62837;51.082;13.744;2024-03-29T03:35:39;98965.21;;;9.82;55.30
74403;BME280;62837;51.082;13.744;2024-03-29T03:38:10;98962.39;;;9.79;55.78
74403;BME280;62837;51.082;13.744;2024-03-29T03:40:40;98958.72;;;9.77;55.74
74403;BME280;62837;51.082;13.744;2024-03-29T03:43:10;98952.48;;;9.76;55.67
74403;BME280;62837;51.082;13.744;2024-03-29T03:45:41;98939.88;;;9.74;55.72
74403;BME280;62837;51.082;13.744;2024-03-29T03:48:13;98937.20;;;9.67;55.37
74403;BME280;62837;51.082;13.744;2024-03-29T03:50:44;98938.30;;;9.61;55.74
74403;BME280;62837;51.082;13.744;2024-03-29T03:53:14;98946.59;;;9.60;56.01
74403;BME280;62837;51.082;13.744;2024-03-29T03:55:44;98953.02;;;9.59;55.95
74403;BME280;62837;51.082;13.744;2024-03-29T03:58:15;98962.45;;;9.60;56.03
74403;BME280;62837;51.082;13.744;2024-03-29T04:00:45;98955.67;;;9.62;56.01
74403;BME280;62837;51.082;13.744;2024-03-29T04:03:15;98952.42;;;9.65;56.21
74403;BME280;62837;51.082;13.744;2024-03-29T04:05:46;98947.64;;;9.66;55.95
74403;BME280;62837;51.082;13.744;2024-03-29T04:08:16;98949.39;;;9.66;55.66
74403;BME280;62837;51.082;13.744;2024-03-29T04:10:48;98943.01;;;9.67;55.74
74403;BME280;62837;51.082;13.744;2024-03-29T04:13:19;98942.36;;;9.67;55.61
74403;BME280;62837;51.082;13.744;2024-03-29T04:15:49;98936.60;;;9.65;55.18
74403;BME280;62837;51.082;13.744;2024-03-29T04:18:19;98942.02;;;9.62;55.50
74403;BME280;62837;51.082;13.744;2024-03-29T04:20:57;98938.61;;;9.61;55.72
74403;BME280;62837;51.082;13.744;2024-03-29T04:23:28;98941.52;;;9.62;55.49
74403;BME280;62837;51.082;13.744;2024-03-29T04:25:59;98948.64;;;9.63;55.74
74403;BME280;62837;51.082;13.744;2024-03-29T04:28:29;98944.77;;;9.67;55.97
74403;BME280;62837;51.082;13.744;2024-03-29T04:31:00;98939.15;;;9.69;55.69
74403;BME280;62837;51.082;13.744;2024-03-29T04:33:31;98943.83;;;9.72;55.82
74403;BME280;62837;51.082;13.744;2024-03-29T04:36:02;98945.52;;;9.74;55.67
74403;BME280;62837;51.082;13.744;2024-03-29T04:38:33;98940.89;;;9.76;55.63
74403;BME280;62837;51.082;13.744;2024-03-29T04:41:04;98941.91;;;9.78;55.66
74403;BME280;62837;51.082;13.744;2024-03-29T04:43:34;98935.66;;;9.78;55.31
74403;BME280;62837;51.082;13.744;2024-03-29T04:46:08;98934.01;;;9.78;55.43
74403;BME280;62837;51.082;13.744;2024-03-29T04:48:37;98926.59;;;9.78;55.63
74403;BME280;62837;51.082;13.744;2024-03-29T04:51:08;98920.67;;;9.79;56.04
74403;BME280;62837;51.082;13.744;2024-03-29T04:53:38;98922.83;;;9.82;55.56
74403;BME280;62837;51.082;13.744;2024-03-29T04:56:09;98917.21;;;9.83;55.61
74403;BME280;62837;51.082;13.744;2024-03-29T04:58:39;98919.79;;;9.84;55.72
74403;BME280;62837;51.082;13.744;2024-03-29T05:01:09;98925.05;;;9.85;55.63
74403;BME280;62837;51.082;13.744;2024-03-29T05:03:39;98932.11;;;9.87;55.64
74403;BME280;62837;51.082;13.744;2024-03-29T05:06:09;98938.80;;;9.90;55.70
74403;BME280;62837;51.082;13.744;2024-03-29T05:08:39;98939.78;;;9.95;55.94
74403;BME280;62837;51.082;13.744;2024-03-29T05:11:10;98938.88;;;10.02;55.62
74403;BME280;62837;51.082;13.744;2024-03-29T05:13:43;98929.55;;;10.06;55.43
74403;BME280;62837;51.082;13.744;2024-03-29T05:16:13;98919.99;;;10.11;55.63
74403;BME280;62837;51.082;13.744;2024-03-29T05:18:44;98925.01;;;10.18;55.59
74403;BME280;62837;51.082;13.744;2024-03-29T05:21:14;98930.91;;;10.25;55.78
74403;BME280;62837;51.082;13.744;2024-03-29T05:23:44;98930.84;;;10.31;55.28
74403;BME280;62837;51.082;13.744;2024-03-29T05:26:15;98931.56;;;10.34;55.08
74403;BME280;62837;51.082;13.744;2024-03-29T05:28:48;98943.44;;;10.36;54.71
74403;BME280;62837;51.082;13.744;2024-03-29T05:31:18;98945.42;;;10.34;54.68
74403;BME280;62837;51.082;13.744;2024-03-29T05:33:48;98952.67;;;10.33;54.98
74403;BME280;62837;51.082;13.744;2024-03-29T05:36:18;98950.36;;;10.35;54.97
74403;BME280;62837;51.082;13.744;2024-03-29T05:38:48;98929.59;;;10.35;54.74
74403;BME280;62837;51.082;13.744;2024-03-29T05:41:19;98923.50;;;10.34;55.03
74403;BME280;62837;51.082;13.744;2024-03-29T05:43:49;98917.16;;;10.35;55.16
74403;BME280;62837;51.082;13.744;2024-03-29T05:46:20;98918.55;;;10.38;55.14
74403;BME280;62837;51.082;13.744;2024-03-29T05:48:50;98925.20;;;10.40;54.56
74403;BME280;62837;51.082;13.744;2024-03-29T05:51:20;98936.65;;;10.41;54.62
74403;BME280;62837;51.082;13.744;2024-03-29T05:53:51;98944.55;;;10.39;54.57
74403;BME280;62837;51.082;13.744;2024-03-29T05:56:21;98949.71;;;10.39;54.50
74403;BME280;62837;51.082;13.744;2024-03-29T05:58:51;98952.95;;;10.40;54.66
74403;BME280;62837;51.082;13.744;2024-03-29T06:01:21;98948.59;;;10.53;58.23
74403;BME280;62837;51.082;13.744;2024-03-29T06:03:52;98946.70;;;10.68;54.84
74403;BME280;62837;51.082;13.744;2024-03-29T06:06:23;98950.59;;;10.65;53.59
74403;BME280;62837;51.082;13.744;2024-03-29T06:08:54;98957.67;;;10.57;53.10
74403;BME280;62837;51.082;13.744;2024-03-29T06:11:24;98954.52;;;10.46;52.97
74403;BME280;62837;51.082;13.744;2024-03-29T06:13:54;98956.51;;;10.36;52.97
74403;BME280;62837;51.082;13.744;2024-03-29T06:16:41;98953.30;;;10.27;52.97
74403;BME280;62837;51.082;13.744;2024-03-29T06:19:29;98961.77;;;10.22;53.11
74403;BME280;62837;51.082;13.744;2024-03-29T06:22:00;98978.23;;;10.20;52.96
74403;BME280;62837;51.082;13.744;2024-03-29T06:24:30;98977.59;;;10.16;53.01
74403;BME280;62837;51.082;13.744;2024-03-29T06:27:01;98985.95;;;10.14;53.23
74403;BME280;62837;51.082;13.744;2024-03-29T06:29:32;98987.54;;;10.13;53.21
74403;BME280;62837;51.082;13.744;2024-03-29T06:32:02;98985.89;;;10.13;53.31
74403;BME280;62837;51.082;13.744;2024-03-29T06:34:32;98986.00;;;10.12;53.36
74403;BME280;62837;51.082;13.744;2024-03-29T06:37:03;98991.59;;;10.10;53.39
74403;BME280;62837;51.082;13.744;2024-03-29T06:39:34;98994.45;;;10.08;53.44
74403;BME280;62837;51.082;13.744;2024-03-29T06:42:04;99001.88;;;10.07;53.45
74403;BME280;62837;51.082;13.744;2024-03-29T06:44:36;98998.90;;;10.08;55.75
74403;BME280;62837;51.082;13.744;2024-03-29T06:47:06;99003.14;;;10.37;62.40
74403;BME280;62837;51.082;13.744;2024-03-29T06:49:38;99001.22;;;10.79;63.35
74403;BME280;62837;51.082;13.744;2024-03-29T06:52:10;99002.21;;;11.15;62.49
74403;BME280;62837;51.082;13.744;2024-03-29T06:54:40;99004.05;;;11.44;62.08
74403;BME280;62837;51.082;13.744;2024-03-29T06:57:10;99003.23;;;11.69;60.38
74403;BME280;62837;51.082;13.744;2024-03-29T06:59:44;99002.80;;;11.76;54.54
74403;BME280;62837;51.082;13.744;2024-03-29T07:02:14;98997.91;;;11.60;52.76
74403;BME280;62837;51.082;13.744;2024-03-29T07:04:44;99000.66;;;11.43;52.25
74403;BME280;62837;51.082;13.744;2024-03-29T07:07:16;98997.98;;;11.26;52.34
74403;BME280;62837;51.082;13.744;2024-03-29T07:09:47;98998.73;;;11.12;52.09
74403;BME280;62837;51.082;13.744;2024-03-29T07:12:17;99005.82;;;10.98;52.20
74403;BME280;62837;51.082;13.744;2024-03-29T07:14:47;99003.85;;;10.89;52.19
74403;BME280;62837;51.082;13.744;2024-03-29T07:17:18;99005.42;;;10.81;52.22
74403;BME280;62837;51.082;13.744;2024-03-29T07:19:48;99006.48;;;10.75;52.16
74403;BME280;62837;51.082;13.744;2024-03-29T07:22:18;99015.42;;;10.68;52.24
74403;BME280;62837;51.082;13.744;2024-03-29T07:25:05;99016.36;;;10.63;52.27
74403;BME280;62837;51.082;13.744;2024-03-29T07:27:36;99016.22;;;10.57;52.38
74403;BME280;62837;51.082;13.744;2024-03-29T07:30:08;99017.09;;;10.54;52.45
74403;BME280;62837;51.082;13.744;2024-03-29T07:32:39;99008.17;;;10.54;52.70
74403;BME280;62837;51.082;13.744;2024-03-29T07:35:10;99003.83;;;10.54;52.66
74403;BME280;62837;51.082;13.744;2024-03-29T07:37:41;99012.27;;;10.56;52.72
74403;BME280;62837;51.082;13.744;2024-03-29T07:40:14;99005.38;;;10.57;52.60
74403;BME280;62837;51.082;13.744;2024-03-29T07:42:45;99007.66;;;10.60;52.63
74403;BME280;62837;51.082;13.744;2024-03-29T07:45:15;99005.50;;;10.62;52.69
74403;BME280;62837;51.082;13.744;2024-03-29T07:47:46;98998.77;;;10.64;52.49
74403;BME280;62837;51.082;13.744;2024-03-29T07:50:21;99001.44;;;10.65;52.25
74403;BME280;62837;51.082;13.744;2024-03-29T07:52:53;98995.27;;;10.67;52.07
74403;BME280;62837;51.082;13.744;2024-03-29T07:55:23;98993.39;;;10.71;52.16
74403;BME280;62837;51.082;13.744;2024-03-29T07:57:54;98988.14;;;10.75;52.02
74403;BME280;62837;51.082;13.744;2024-03-29T08:00:25;98999.07;;;10.75;51.74
74403;BME280;62837;51.082;13.744;2024-03-29T08:02:55;99006.47;;;10.76;51.89
74403;BME280;62837;51.082;13.744;2024-03-29T08:05:26;99019.63;;;10.81;51.83
74403;BME280;62837;51.082;13.744;2024-03-29T08:07:56;99037.00;;;10.85;51.64
74403;BME280;62837;51.082;13.744;2024-03-29T08:10:26;99035.05;;;10.91;51.47
74403;BME280;62837;51.082;13.744;2024-03-29T08:12:56;99029.02;;;10.97;51.19
74403;BME280;62837;51.082;13.744;2024-03-29T08:15:27;99015.78;;;11.05;51.00
74403;BME280;62837;51.082;13.744;2024-03-29T08:17:57;99020.85;;;11.13;50.90
74403;BME280;62837;51.082;13.744;2024-03-29T08:20:27;99034.02;;;11.19;50.35
74403;BME280;62837;51.082;13.744;2024-03-29T08:23:00;99054.13;;;11.26;50.35
74403;BME280;62837;51.082;13.744;2024-03-29T08:25:33;99059.81;;;11.32;50.21
74403;BME280;62837;51.082;13.744;2024-03-29T08:28:03;99056.11;;;11.36;49.97
74403;BME280;62837;51.082;13.744;2024-03-29T08:30:34;99051.65;;;11.36;49.36
74403;BME280;62837;51.082;13.744;2024-03-29T08:33:05;99064.91;;;11.37;49.66
74403;BME280;62837;51.082;13.744;2024-03-29T08:35:35;99072.95;;;11.37;49.55
74403;BME280;62837;51.082;13.744;2024-03-29T08:38:06;99072.05;;;11.39;49.35
74403;BME280;62837;51.082;13.744;2024-03-29T08:40:36;99072.98;;;11.43;48.99
74403;BME280;62837;51.082;13.744;2024-03-29T08:43:11;99087.30;;;11.47;48.63
74403;BME280;62837;51.082;13.744;2024-03-29T08:45:41;99085.96;;;11.48;48.36
74403;BME280;62837;51.082;13.744;2024-03-29T08:48:11;99084.69;;;11.49;48.21
74403;BME280;62837;51.082;13.744;2024-03-29T08:50:42;99090.36;;;11.52;47.95
74403;BME280;62837;51.082;13.744;2024-03-29T08:53:12;99086.02;;;11.56;47.87
74403;BME280;62837;51.082;13.744;2024-03-29T08:55:43;99078.39;;;11.61;48.07
74403;BME280;62837;51.082;13.744;2024-03-29T08:58:13;99069.02;;;11.67;48.16
74403;BME280;62837;51.082;13.744;2024-03-29T09:00:43;99062.05;;;11.73;48.25
74403;BME280;62837;51.082;13.744;2024-03-29T09:03:16;99048.56;;;11.77;48.03
74403;BME280;62837;51.082;13.744;2024-03-29T09:05:46;99036.17;;;11.84;48.09
74403;BME280;62837;51.082;13.744;2024-03-29T09:08:17;99017.48;;;11.94;48.37
74403;BME280;62837;51.082;13.744;2024-03-29T09:10:47;99008.17;;;12.06;48.12
74403;BME280;62837;51.082;13.744;2024-03-29T09:13:17;99005.60;;;12.21;47.88
74403;BME280;62837;51.082;13.744;2024-03-29T09:15:47;99007.79;;;12.36;47.66
74403;BME280;62837;51.082;13.744;2024-03-29T09:18:18;99016.08;;;12.53;47.05
74403;BME280;62837;51.082;13.744;2024-03-29T09:20:59;99027.09;;;12.68;47.05
74403;BME280;62837;51.082;13.744;2024-03-29T09:23:29;99014.86;;;12.81;46.94
74403;BME280;62837;51.082;13.744;2024-03-29T09:25:59;99004.73;;;12.93;46.66
74403;BME280;62837;51.082;13.744;2024-03-29T09:28:30;99005.20;;;13.05;46.37
74403;BME280;62837;51.082;13.744;2024-03-29T09:31:01;99000.23;;;13.19;45.89
74403;BME280;62837;51.082;13.744;2024-03-29T09:33:31;98990.56;;;13.31;45.44
74403;BME280;62837;51.082;13.744;2024-03-29T09:36:02;98988.37;;;13.43;45.11
74403;BME280;62837;51.082;13.744;2024-03-29T09:38:32;98994.66;;;13.53;43.18
74403;BME280;62837;51.082;13.744;2024-03-29T09:41:10;98977.85;;;13.60;41.18
74403;BME280;62837;51.082;13.744;2024-03-29T09:43:42;98953.09;;;13.64;40.20
74403;BME280;62837;51.082;13.744;2024-03-29T09:46:15;98940.31;;;13.74;40.08
74403;BME280;62837;51.082;13.744;2024-03-29T09:48:45;98934.73;;;13.86;40.20
74403;BME280;62837;51.082;13.744;2024-03-29T09:51:16;98921.98;;;14.02;40.18
74403;BME280;62837;51.082;13.744;2024-03-29T09:53:48;98923.44;;;14.12;39.52
74403;BME280;62837;51.082;13.744;2024-03-29T09:56:18;98919.71;;;14.16;39.07
74403;BME280;62837;51.082;13.744;2024-03-29T09:58:48;98915.80;;;14.20;39.18
74403;BME280;62837;51.082;13.744;2024-03-29T10:01:19;98914.45;;;14.25;39.32
74403;BME280;62837;51.082;13.744;2024-03-29T10:03:51;98912.69;;;14.31;39.60
74403;BME280;62837;51.082;13.744;2024-03-29T10:06:25;98909.77;;;14.33;38.71
74403;BME280;62837;51.082;13.744;2024-03-29T10:08:57;98905.53;;;14.32;39.65
74403;BME280;62837;51.082;13.744;2024-03-29T10:11:27;98909.61;;;14.37;44.26
74403;BME280;62837;51.082;13.744;2024-03-29T10:13:57;98916.23;;;14.48;43.94
74403;BME280;62837;51.082;13.744;2024-03-29T10:16:31;98916.83;;;14.55;45.03
74403;BME280;62837;51.082;13.744;2024-03-29T10:19:03;98915.02;;;14.57;40.92
74403;BME280;62837;51.082;13.744;2024-03-29T10:21:36;98920.32;;;14.57;40.48
74403;BME280;62837;51.082;13.744;2024-03-29T10:24:17;98920.09;;;14.57;40.09
74403;BME280;62837;51.082;13.744;2024-03-29T10:26:48;98919.16;;;14.57;39.60
74403;BME280;62837;51.082;13.744;2024-03-29T10:29:18;98923.25;;;14.59;39.45
74403;BME280;62837;51.082;13.744;2024-03-29T10:31:48;98911.47;;;14.60;38.71
74403;BME280;62837;51.082;13.744;2024-03-29T10:34:20;98900.77;;;14.61;38.16
74403;BME280;62837;51.082;13.744;2024-03-29T10:36:52;98888.19;;;14.62;38.25
74403;BME280;62837;51.082;13.744;2024-03-29T10:39:22;98883.73;;;14.65;38.27
74403;BME280;62837;51.082;13.744;2024-03-29T10:41:53;98874.42;;;14.71;38.02
74403;BME280;62837;51.082;13.744;2024-03-29T10:44:24;98872.13;;;14.77;38.05
74403;BME280;62837;51.082;13.744;2024-03-29T10:46:57;98861.53;;;14.85;37.87
74403;BME280;62837;51.082;13.744;2024-03-29T10:49:29;98859.02;;;14.94;38.04
74403;BME280;62837;51.082;13.744;2024-03-29T10:52:00;98849.33;;;15.02;37.85
74403;BME280;62837;51.082;13.744;2024-03-29T10:54:35;98846.74;;;15.10;37.94
74403;BME280;62837;51.082;13.744;2024-03-29T10:57:09;98845.38;;;15.18;37.69
74403;BME280;62837;51.082;13.744;2024-03-29T10:59:49;98851.01;;;15.23;37.61
74403;BME280;62837;51.082;13.744;2024-03-29T11:02:31;98854.29;;;15.26;37.26
74403;BME280;62837;51.082;13.744;2024-03-29T11:05:09;98859.80;;;15.29;36.97
74403;BME280;62837;51.082;13.744;2024-03-29T11:07:42;98856.89;;;15.31;37.17
74403;BME280;62837;51.082;13.744;2024-03-29T11:10:17;98852.63;;;15.35;37.17
74403;BME280;62837;51.082;13.744;2024-03-29T11:13:01;98859.30;;;15.39;37.34
74403;BME280;62837;51.082;13.744;2024-03-29T11:15:35;98866.85;;;15.41;37.32
74403;BME280;62837;51.082;13.744;2024-03-29T11:18:08;98865.08;;;15.39;37.32
74403;BME280;62837;51.082;13.744;2024-03-29T11:20:39;98859.27;;;15.36;37.55
74403;BME280;62837;51.082;13.744;2024-03-29T11:23:13;98859.56;;;15.34;37.81
74403;BME280;62837;51.082;13.744;2024-03-29T11:25:45;98858.60;;;15.34;37.57
74403;BME280;62837;51.082;13.744;2024-03-29T11:28:23;98863.46;;;15.35;37.61
74403;BME280;62837;51.082;13.744;2024-03-29T11:30:58;98873.31;;;15.37;37.59
74403;BME280;62837;51.082;13.744;2024-03-29T11:33:31;98863.61;;;15.37;37.23
74403;BME280;62837;51.082;13.744;2024-03-29T11:36:09;98872.05;;;15.40;37.56
74403;BME280;62837;51.082;13.744;2024-03-29T11:38:41;98879.67;;;15.43;37.19
74403;BME280;62837;51.082;13.744;2024-03-29T11:41:14;98878.94;;;15.44;37.40
74403;BME280;62837;51.082;13.744;2024-03-29T11:43:46;98885.26;;;15.46;36.67
74403;BME280;62837;51.082;13.744;2024-03-29T11:46:17;98878.25;;;15.45;36.53
74403;BME280;62837;51.082;13.744;2024-03-29T11:48:48;98875.52;;;15.46;36.84
74403;BME280;62837;51.082;13.744;2024-03-29T11:51:23;98875.30;;;15.48;37.20
74403;BME280;62837;51.082;13.744;2024-03-29T11:53:55;98877.64;;;15.49;36.91
74403;BME280;62837;51.082;13.744;2024-03-29T11:56:26;98882.65;;;15.49;36.84
74403;BME280;62837;51.082;13.744;2024-03-29T11:58:56;98878.63;;;15.48;36.54
74403;BME280;62837;51.082;13.744;2024-03-29T12:01:28;98874.15;;;15.47;36.99
74403;BME280;62837;51.082;13.744;2024-03-29T12:04:01;98879.20;;;15.47;36.61
74403;BME280;62837;51.082;13.744;2024-03-29T12:06:31;98870.40;;;15.46;36.91
74403;BME280;62837;51.082;13.744;2024-03-29T12:09:02;98875.39;;;15.46;36.73
74403;BME280;62837;51.082;13.744;2024-03-29T12:11:32;98877.88;;;15.47;36.88
74403;BME280;62837;51.082;13.744;2024-03-29T12:14:02;98877.31;;;15.47;36.72
74403;BME280;62837;51.082;13.744;2024-03-29T12:16:44;98881.45;;;15.47;37.05
74403;BME280;62837;51.082;13.744;2024-03-29T12:19:22;98878.34;;;15.48;37.21
74403;BME280;62837;51.082;13.744;2024-03-29T12:21:53;98878.68;;;15.49;37.78
74403;BME280;62837;51.082;13.744;2024-03-29T12:24:23;98878.08;;;15.51;37.48
74403;BME280;62837;51.082;13.744;2024-03-29T12:26:56;98881.13;;;15.54;37.74
74403;BME280;62837;51.082;13.744;2024-03-29T12:29:27;98885.35;;;15.54;37.55
74403;BME280;62837;51.082;13.744;2024-03-29T12:32:01;98887.79;;;15.56;38.00
74403;BME280;62837;51.082;13.744;2024-03-29T12:34:33;98888.61;;;15.56;37.97
74403;BME280;62837;51.082;13.744;2024-03-29T12:37:04;98890.05;;;15.57;38.04
74403;BME280;62837;51.082;13.744;2024-03-29T12:39:34;98890.83;;;15.56;38.39
74403;BME280;62837;51.082;13.744;2024-03-29T12:42:06;98889.36;;;15.57;38.59
74403;BME280;62837;51.082;13.744;2024-03-29T12:44:37;98888.16;;;15.59;38.96
74403;BME280;62837;51.082;13.744;2024-03-29T12:47:07;98888.23;;;15.59;39.21
74403;BME280;62837;51.082;13.744;2024-03-29T12:49:41;98884.16;;;15.60;39.33
74403;BME280;62837;51.082;13.744;2024-03-29T12:52:12;98881.04;;;15.61;39.28
74403;BME280;62837;51.082;13.744;2024-03-29T12:54:42;98882.02;;;15.63;39.91
74403;BME280;62837;51.082;13.744;2024-03-29T12:57:12;98880.96;;;15.64;40.14
74403;BME280;62837;51.082;13.744;2024-03-29T12:59:42;98889.73;;;15.66;40.06
74403;BME280;62837;51.082;13.744;2024-03-29T13:02:13;98894.27;;;15.68;40.19
74403;BME280;62837;51.082;13.744;2024-03-29T13:04:44;98893.35;;;15.68;39.78
74403;BME280;62837;51.082;13.744;2024-03-29T13:07:14;98899.89;;;15.70;39.54
74403;BME280;62837;51.082;13.744;2024-03-29T13:09:45;98896.86;;;15.71;39.28
74403;BME280;62837;51.082;13.744;2024-03-29T13:12:15;98900.38;;;15.73;39.09